Gurli — SLEG — position and weather

sailwx.info

Track history (hours):
 
Tides and Currents Weather Stations Pressure Air Temp Water Temp Dewpoint Dewpoint Depression Visibility Wind Speed Wind Dir Waves Ship Positions

Gurli

Last reported at 2014-Nov-24 02:30 UTC. Time now 2014-Nov-24 02:49 UTC.
Position N 59°20' E 018°05'.

Length 21 m.

Type: Passenger vessel. MMSI: 265687640.

Date/timePositionNaut miles runAvg speedWind from/ knotsBaromVisibWave heightAir tempDewpointWater temp
2014-Nov-24 02:30N 59°20' E 018°05'0 0.0
2014-Nov-24 01:06N 59°20' E 018°05'0 0.0
2014-Nov-23 23:24N 59°20' E 018°05'0 0.0
2014-Nov-23 21:15N 59°20' E 018°05'0 0.0
2014-Nov-23 18:24N 59°20' E 018°05'0 0.0
2014-Nov-23 17:21N 59°20' E 018°05'0 0.0
2014-Nov-23 16:33N 59°20' E 018°05'0 0.0
2014-Nov-23 15:06N 59°20' E 018°05'0 0.0
2014-Nov-23 14:30N 59°20' E 018°05'0 0.0
2014-Nov-23 13:21N 59°20' E 018°05'0 0.0
2014-Nov-23 12:33N 59°20' E 018°05'0 0.0
2014-Nov-23 11:33N 59°20' E 018°05'0 0.0
2014-Nov-23 10:30N 59°20' E 018°05'0 0.0
2014-Nov-23 05:15N 59°20' E 018°05'0 0.0
2014-Nov-23 02:24N 59°20' E 018°05'0 0.0
2014-Nov-22 16:18N 59°20' E 018°05'0 0.0
2014-Nov-22 13:30N 59°20' E 018°05'0 0.0
2014-Nov-22 10:18N 59°20' E 018°05'0 0.0
2014-Nov-22 09:18N 59°20' E 018°05'0 0.0
2014-Nov-22 07:15N 59°20' E 018°05'0 0.0
2014-Nov-22 05:27N 59°20' E 018°05'0 0.0
2014-Nov-22 04:12N 59°20' E 018°05'0 0.0
2014-Nov-22 03:24N 59°20' E 018°05'0 0.0
2014-Nov-22 01:21N 59°20' E 018°05'0 0.0
2014-Nov-22 00:30N 59°20' E 018°05'0 0.0
2014-Nov-21 23:30N 59°20' E 018°05'0 0.0
2014-Nov-21 22:06N 59°20' E 018°05'0 0.0
2014-Nov-21 21:27N 59°20' E 018°05'0 0.0
2014-Nov-21 20:24N 59°20' E 018°05'2 2.1
2014-Nov-21 19:17N 59°21' E 018°09'2 3.1
2014-Nov-21 18:33N 59°20' E 018°05'2 1.9
2014-Nov-21 17:29N 59°21' E 018°09'2 2.3
2014-Nov-21 16:31N 59°20' E 018°05'2 1.4
2014-Nov-21 15:04N 59°19' E 018°08'2 2.7
2014-Nov-21 14:21N 59°20' E 018°05'2 2.2
2014-Nov-21 13:33N 59°19' E 018°07'0 0.0
2014-Nov-21 12:32N 59°19' E 018°07'2 1.5
2014-Nov-21 11:21N 59°21' E 018°09'2 2.5
2014-Nov-21 10:32N 59°20' E 018°05'2 1.8
2014-Nov-21 09:28N 59°21' E 018°08'2 1.8
2014-Nov-21 08:22N 59°20' E 018°05'2 1.6
2014-Nov-21 07:08N 59°21' E 018°08'2 2.8
2014-Nov-21 06:27N 59°19' E 018°06'1 0.5
2014-Nov-21 04:11N 59°20' E 018°05'0 0.0
2014-Nov-21 03:32N 59°20' E 018°05'0 0.0
2014-Nov-21 02:05N 59°20' E 018°05'0 0.0
2014-Nov-21 01:26N 59°20' E 018°05'0 0.0
2014-Nov-20 23:32N 59°20' E 018°05'0 0.0
2014-Nov-20 22:32N 59°20' E 018°05'0 0.0
2014-Nov-20 21:26N 59°20' E 018°05'0 0.0
2014-Nov-20 20:23N 59°20' E 018°05'2 2.1
2014-Nov-20 19:28N 59°21' E 018°08'2 2.0
2014-Nov-20 18:32N 59°20' E 018°05'2 2.2
2014-Nov-20 17:28N 59°21' E 018°09'2 2.6
2014-Nov-20 16:31N 59°20' E 018°05'2 2.3
2014-Nov-20 15:27N 59°21' E 018°09'2 2.3
2014-Nov-20 14:25N 59°20' E 018°05'2 2.0
2014-Nov-20 13:32N 59°19' E 018°07'0 0.4
2014-Nov-20 12:31N 59°19' E 018°08'2 1.4
2014-Nov-20 11:24N 59°21' E 018°09'2 2.6
2014-Nov-20 10:33N 59°19' E 018°06'2 1.9
2014-Nov-20 09:33N 59°21' E 018°08'2 1.9
2014-Nov-20 08:30N 59°20' E 018°05'2 1.7
2014-Nov-20 07:15N 59°21' E 018°09'2 2.7
2014-Nov-20 06:31N 59°19' E 018°07'2 2.1
2014-Nov-20 05:31N 59°21' E 018°09'2 1.0
2014-Nov-20 03:05N 59°20' E 018°05'0 0.0
2014-Nov-20 02:17N 59°20' E 018°05'0 0.0
2014-Nov-20 01:05N 59°20' E 018°05'0 0.0
2014-Nov-20 00:26N 59°20' E 018°05'0 0.0
2014-Nov-19 23:26N 59°20' E 018°05'0 0.0
2014-Nov-19 22:29N 59°20' E 018°05'0 0.0
2014-Nov-19 21:23N 59°20' E 018°05'1 1.3
2014-Nov-19 20:30N 59°19' E 018°06'2 1.8
2014-Nov-19 19:20N 59°21' E 018°08'2 2.6
2014-Nov-19 18:32N 59°20' E 018°05'1 1.3
2014-Nov-19 17:33N 59°19' E 018°06'2 1.6
2014-Nov-19 16:31N 59°19' E 018°10'2 1.6
2014-Nov-19 15:34N 59°19' E 018°07'1 0.5
2014-Nov-19 14:33N 59°19' E 018°08'0 0.1
2014-Nov-19 13:33N 59°19' E 018°07'0 0.3
2014-Nov-19 12:33N 59°19' E 018°08'1 0.8
2014-Nov-19 11:33N 59°19' E 018°10'2 2.0
2014-Nov-19 10:29N 59°20' E 018°05'2 1.8
2014-Nov-19 09:29N 59°21' E 018°08'2 1.7
2014-Nov-19 08:22N 59°20' E 018°05'2 2.9
2014-Nov-19 07:31N 59°20' E 018°09'2 1.6
2014-Nov-19 06:33N 59°19' E 018°07'2 1.1
2014-Nov-19 05:06N 59°19' E 018°09'2 1.6
2014-Nov-19 03:33N 59°20' E 018°05'0 0.0
2014-Nov-19 02:15N 59°20' E 018°05'0 0.0
2014-Nov-19 01:27N 59°20' E 018°05'0 0.0
2014-Nov-19 00:27N 59°20' E 018°05'0 0.0
2014-Nov-18 23:12N 59°20' E 018°05'0 0.0
2014-Nov-18 22:12N 59°20' E 018°05'0 0.0
2014-Nov-18 21:12N 59°20' E 018°05'0 0.0
2014-Nov-18 20:33N 59°20' E 018°05'2 1.8
2014-Nov-18 19:15N 59°20' E 018°09'2 3.3
2014-Nov-18 18:32N 59°20' E 018°05'2 2.2
2014-Nov-18 17:32N 59°21' E 018°09'2 2.1
2014-Nov-18 16:31N 59°20' E 018°05'2 2.2
2014-Nov-18 15:26N 59°21' E 018°09'2 2.4
2014-Nov-18 14:26N 59°20' E 018°05'2 2.1
2014-Nov-18 13:28N 59°19' E 018°08'0 0.4
2014-Nov-18 12:31N 59°19' E 018°07'1 1.1
2014-Nov-18 11:33N 59°19' E 018°09'2 2.1
2014-Nov-18 10:32N 59°20' E 018°05'2 1.9
2014-Nov-18 09:22N 59°21' E 018°09'2 2.3
2014-Nov-18 08:19N 59°20' E 018°05'2 2.5
2014-Nov-18 07:22N 59°21' E 018°09'2 2.4
2014-Nov-18 06:21N 59°20' E 018°05'0 0.1
2014-Nov-18 04:26N 59°20' E 018°05'0 0.0
2014-Nov-17 23:15N 59°20' E 018°05'0 0.0
2014-Nov-17 20:20N 59°20' E 018°05'2 2.3
2014-Nov-17 19:29N 59°21' E 018°08'2 2.0
2014-Nov-17 18:32N 59°20' E 018°05'2 2.0
2014-Nov-17 17:31N 59°21' E 018°08'2 2.0
2014-Nov-17 16:31N 59°20' E 018°05'2 2.2
2014-Nov-17 15:29N 59°21' E 018°09'2 0.9
2014-Nov-17 13:33N 59°19' E 018°07'0 0.0
2014-Nov-17 12:33N 59°19' E 018°07'2 1.6
2014-Nov-17 11:25N 59°21' E 018°09'2 2.5
2014-Nov-17 10:32N 59°19' E 018°06'2 1.9
2014-Nov-17 09:22N 59°21' E 018°09'2 2.4
2014-Nov-17 08:22N 59°20' E 018°05'2 2.3
2014-Nov-17 07:19N 59°21' E 018°09'2 2.5
2014-Nov-17 06:33N 59°19' E 018°07'1 0.7
2014-Nov-17 04:30N 59°20' E 018°05'0 0.0
2014-Nov-17 03:08N 59°20' E 018°05'0 0.0
2014-Nov-17 02:32N 59°20' E 018°05'0 0.0
2014-Nov-17 01:32N 59°20' E 018°05'0 0.0
2014-Nov-17 00:05N 59°20' E 018°05'0 0.0
2014-Nov-16 23:29N 59°20' E 018°05'0 0.0
2014-Nov-16 22:29N 59°20' E 018°05'0 0.0
2014-Nov-16 21:26N 59°20' E 018°05'0 0.0
2014-Nov-16 20:32N 59°20' E 018°05'0 0.0
2014-Nov-16 18:14N 59°20' E 018°05'0 0.0
2014-Nov-16 17:20N 59°20' E 018°05'0 0.0
2014-Nov-16 16:20N 59°20' E 018°05'0 0.0
2014-Nov-16 15:29N 59°20' E 018°05'0 0.0
2014-Nov-16 14:29N 59°20' E 018°05'0 0.0
2014-Nov-16 13:29N 59°20' E 018°05'0 0.0
2014-Nov-16 12:05N 59°20' E 018°05'0 0.0
2014-Nov-16 11:29N 59°20' E 018°05'0 0.0
2014-Nov-16 10:30N 59°20' E 018°05'0 0.0
2014-Nov-16 09:29N 59°20' E 018°05'0 0.0
2014-Nov-16 08:29N 59°20' E 018°05'0 0.0
2014-Nov-16 07:23N 59°20' E 018°05'0 0.0
2014-Nov-16 06:32N 59°20' E 018°05'0 0.0
2014-Nov-16 04:17N 59°20' E 018°05'0 0.0
2014-Nov-16 02:18N 59°20' E 018°05'0 0.0
2014-Nov-16 01:27N 59°20' E 018°05'0 0.0
2014-Nov-16 00:27N 59°20' E 018°05'0 0.0
2014-Nov-15 22:21N 59°20' E 018°05'0 0.0
2014-Nov-15 21:27N 59°20' E 018°05'0 0.0
2014-Nov-15 20:27N 59°20' E 018°05'0 0.0
2014-Nov-15 19:33N 59°20' E 018°05'0 0.0
2014-Nov-15 18:18N 59°20' E 018°05'0 0.0
2014-Nov-15 17:27N 59°20' E 018°05'0 0.0
2014-Nov-15 16:27N 59°20' E 018°05'0 0.0
2014-Nov-15 15:24N 59°20' E 018°05'0 0.0
2014-Nov-15 14:24N 59°20' E 018°05'0 0.0
2014-Nov-15 13:33N 59°20' E 018°05'0 0.0
2014-Nov-15 12:24N 59°20' E 018°05'0 0.0
2014-Nov-15 11:33N 59°20' E 018°05'0 0.0
2014-Nov-15 10:27N 59°20' E 018°05'0 0.0
2014-Nov-15 09:27N 59°20' E 018°05'0 0.0
2014-Nov-15 04:15N 59°20' E 018°05'0 0.0
2014-Nov-15 03:27N 59°20' E 018°05'0 0.0
2014-Nov-15 02:24N 59°20' E 018°05'0 0.0
2014-Nov-15 00:24N 59°20' E 018°05'0 0.0
2014-Nov-14 23:27N 59°20' E 018°05'0 0.0
2014-Nov-14 22:27N 59°20' E 018°05'0 0.0
2014-Nov-14 21:12N 59°20' E 018°05'0 0.0
2014-Nov-14 20:24N 59°20' E 018°05'2 2.0
2014-Nov-14 19:25N 59°21' E 018°08'2 2.1
2014-Nov-14 18:33N 59°20' E 018°05'2 2.0
2014-Nov-14 17:32N 59°21' E 018°09'2 2.1
2014-Nov-14 16:31N 59°20' E 018°05'2 2.1
2014-Nov-14 15:34N 59°21' E 018°08'2 1.8
2014-Nov-14 14:24N 59°20' E 018°05'2 0.9
2014-Nov-14 12:28N 59°19' E 018°07'2 1.6
2014-Nov-14 11:20N 59°21' E 018°09'2 2.7
2014-Nov-14 10:32N 59°19' E 018°05'2 1.8
2014-Nov-14 09:31N 59°21' E 018°08'2 1.6
2014-Nov-14 08:22N 59°20' E 018°05'3 2.8
2014-Nov-14 07:28N 59°19' E 018°10'2 1.6
2014-Nov-14 06:30N 59°19' E 018°07'2 2.1
2014-Nov-14 05:30N 59°21' E 018°09'2 2.3
2014-Nov-14 04:28N 59°20' E 018°05'0 0.1
2014-Nov-14 03:23N 59°20' E 018°05'  
Track history (hours):
 
Tides and Currents Weather Stations Pressure Air Temp Water Temp Dewpoint Dewpoint Depression Visibility Wind Speed Wind Dir Waves Ship Positions

Gurli

Last reported at 2014-Nov-24 02:30 UTC. Time now 2014-Nov-24 02:49 UTC.
Position N 59°20' E 018°05'.

Length 21 m.

Type: Passenger vessel. MMSI: 265687640.

Date/timePositionNaut miles runAvg speedWind from/ knotsBaromVisibWave heightAir tempDewpointWater temp
2014-Nov-24 02:30N 59°20' E 018°05'0 0.0
2014-Nov-24 01:06N 59°20' E 018°05'0 0.0
2014-Nov-23 23:24N 59°20' E 018°05'0 0.0
2014-Nov-23 21:15N 59°20' E 018°05'0 0.0
2014-Nov-23 18:24N 59°20' E 018°05'0 0.0
2014-Nov-23 17:21N 59°20' E 018°05'0 0.0
2014-Nov-23 16:33N 59°20' E 018°05'0 0.0
2014-Nov-23 15:06N 59°20' E 018°05'0 0.0
2014-Nov-23 14:30N 59°20' E 018°05'0 0.0
2014-Nov-23 13:21N 59°20' E 018°05'0 0.0
2014-Nov-23 12:33N 59°20' E 018°05'0 0.0
2014-Nov-23 11:33N 59°20' E 018°05'0 0.0
2014-Nov-23 10:30N 59°20' E 018°05'0 0.0
2014-Nov-23 05:15N 59°20' E 018°05'0 0.0
2014-Nov-23 02:24N 59°20' E 018°05'0 0.0
2014-Nov-22 16:18N 59°20' E 018°05'0 0.0
2014-Nov-22 13:30N 59°20' E 018°05'0 0.0
2014-Nov-22 10:18N 59°20' E 018°05'0 0.0
2014-Nov-22 09:18N 59°20' E 018°05'0 0.0
2014-Nov-22 07:15N 59°20' E 018°05'0 0.0
2014-Nov-22 05:27N 59°20' E 018°05'0 0.0
2014-Nov-22 04:12N 59°20' E 018°05'0 0.0
2014-Nov-22 03:24N 59°20' E 018°05'0 0.0
2014-Nov-22 01:21N 59°20' E 018°05'0 0.0
2014-Nov-22 00:30N 59°20' E 018°05'0 0.0
2014-Nov-21 23:30N 59°20' E 018°05'0 0.0
2014-Nov-21 22:06N 59°20' E 018°05'0 0.0
2014-Nov-21 21:27N 59°20' E 018°05'0 0.0
2014-Nov-21 20:24N 59°20' E 018°05'2 2.1
2014-Nov-21 19:17N 59°21' E 018°09'2 3.1
2014-Nov-21 18:33N 59°20' E 018°05'2 1.9
2014-Nov-21 17:29N 59°21' E 018°09'2 2.3
2014-Nov-21 16:31N 59°20' E 018°05'2 1.4
2014-Nov-21 15:04N 59°19' E 018°08'2 2.7
2014-Nov-21 14:21N 59°20' E 018°05'2 2.2
2014-Nov-21 13:33N 59°19' E 018°07'0 0.0
2014-Nov-21 12:32N 59°19' E 018°07'2 1.5
2014-Nov-21 11:21N 59°21' E 018°09'2 2.5
2014-Nov-21 10:32N 59°20' E 018°05'2 1.8
2014-Nov-21 09:28N 59°21' E 018°08'2 1.8
2014-Nov-21 08:22N 59°20' E 018°05'2 1.6
2014-Nov-21 07:08N 59°21' E 018°08'2 2.8
2014-Nov-21 06:27N 59°19' E 018°06'1 0.5
2014-Nov-21 04:11N 59°20' E 018°05'0 0.0
2014-Nov-21 03:32N 59°20' E 018°05'0 0.0
2014-Nov-21 02:05N 59°20' E 018°05'0 0.0
2014-Nov-21 01:26N 59°20' E 018°05'0 0.0
2014-Nov-20 23:32N 59°20' E 018°05'0 0.0
2014-Nov-20 22:32N 59°20' E 018°05'0 0.0
2014-Nov-20 21:26N 59°20' E 018°05'0 0.0
2014-Nov-20 20:23N 59°20' E 018°05'2 2.1
2014-Nov-20 19:28N 59°21' E 018°08'2 2.0
2014-Nov-20 18:32N 59°20' E 018°05'2 2.2
2014-Nov-20 17:28N 59°21' E 018°09'2 2.6
2014-Nov-20 16:31N 59°20' E 018°05'2 2.3
2014-Nov-20 15:27N 59°21' E 018°09'2 2.3
2014-Nov-20 14:25N 59°20' E 018°05'2 2.0
2014-Nov-20 13:32N 59°19' E 018°07'0 0.4
2014-Nov-20 12:31N 59°19' E 018°08'2 1.4
2014-Nov-20 11:24N 59°21' E 018°09'2 2.6
2014-Nov-20 10:33N 59°19' E 018°06'2 1.9
2014-Nov-20 09:33N 59°21' E 018°08'2 1.9
2014-Nov-20 08:30N 59°20' E 018°05'2 1.7
2014-Nov-20 07:15N 59°21' E 018°09'2 2.7
2014-Nov-20 06:31N 59°19' E 018°07'2 2.1
2014-Nov-20 05:31N 59°21' E 018°09'2 1.0
2014-Nov-20 03:05N 59°20' E 018°05'0 0.0
2014-Nov-20 02:17N 59°20' E 018°05'0 0.0
2014-Nov-20 01:05N 59°20' E 018°05'0 0.0
2014-Nov-20 00:26N 59°20' E 018°05'0 0.0
2014-Nov-19 23:26N 59°20' E 018°05'0 0.0
2014-Nov-19 22:29N 59°20' E 018°05'0 0.0
2014-Nov-19 21:23N 59°20' E 018°05'1 1.3
2014-Nov-19 20:30N 59°19' E 018°06'2 1.8
2014-Nov-19 19:20N 59°21' E 018°08'2 2.6
2014-Nov-19 18:32N 59°20' E 018°05'1 1.3
2014-Nov-19 17:33N 59°19' E 018°06'2 1.6
2014-Nov-19 16:31N 59°19' E 018°10'2 1.6
2014-Nov-19 15:34N 59°19' E 018°07'1 0.5
2014-Nov-19 14:33N 59°19' E 018°08'0 0.1
2014-Nov-19 13:33N 59°19' E 018°07'0 0.3
2014-Nov-19 12:33N 59°19' E 018°08'1 0.8
2014-Nov-19 11:33N 59°19' E 018°10'2 2.0
2014-Nov-19 10:29N 59°20' E 018°05'2 1.8
2014-Nov-19 09:29N 59°21' E 018°08'2 1.7
2014-Nov-19 08:22N 59°20' E 018°05'2 2.9
2014-Nov-19 07:31N 59°20' E 018°09'2 1.6
2014-Nov-19 06:33N 59°19' E 018°07'2 1.1
2014-Nov-19 05:06N 59°19' E 018°09'2 1.6
2014-Nov-19 03:33N 59°20' E 018°05'0 0.0
2014-Nov-19 02:15N 59°20' E 018°05'0 0.0
2014-Nov-19 01:27N 59°20' E 018°05'0 0.0
2014-Nov-19 00:27N 59°20' E 018°05'0 0.0
2014-Nov-18 23:12N 59°20' E 018°05'0 0.0
2014-Nov-18 22:12N 59°20' E 018°05'0 0.0
2014-Nov-18 21:12N 59°20' E 018°05'0 0.0
2014-Nov-18 20:33N 59°20' E 018°05'2 1.8
2014-Nov-18 19:15N 59°20' E 018°09'2 3.3
2014-Nov-18 18:32N 59°20' E 018°05'2 2.2
2014-Nov-18 17:32N 59°21' E 018°09'2 2.1
2014-Nov-18 16:31N 59°20' E 018°05'2 2.2
2014-Nov-18 15:26N 59°21' E 018°09'2 2.4
2014-Nov-18 14:26N 59°20' E 018°05'2 2.1
2014-Nov-18 13:28N 59°19' E 018°08'0 0.4
2014-Nov-18 12:31N 59°19' E 018°07'1 1.1
2014-Nov-18 11:33N 59°19' E 018°09'2 2.1
2014-Nov-18 10:32N 59°20' E 018°05'2 1.9
2014-Nov-18 09:22N 59°21' E 018°09'2 2.3
2014-Nov-18 08:19N 59°20' E 018°05'2 2.5
2014-Nov-18 07:22N 59°21' E 018°09'2 2.4
2014-Nov-18 06:21N 59°20' E 018°05'0 0.1
2014-Nov-18 04:26N 59°20' E 018°05'0 0.0
2014-Nov-17 23:15N 59°20' E 018°05'0 0.0
2014-Nov-17 20:20N 59°20' E 018°05'2 2.3
2014-Nov-17 19:29N 59°21' E 018°08'2 2.0
2014-Nov-17 18:32N 59°20' E 018°05'2 2.0
2014-Nov-17 17:31N 59°21' E 018°08'2 2.0
2014-Nov-17 16:31N 59°20' E 018°05'2 2.2
2014-Nov-17 15:29N 59°21' E 018°09'2 0.9
2014-Nov-17 13:33N 59°19' E 018°07'0 0.0
2014-Nov-17 12:33N 59°19' E 018°07'2 1.6
2014-Nov-17 11:25N 59°21' E 018°09'2 2.5
2014-Nov-17 10:32N 59°19' E 018°06'2 1.9
2014-Nov-17 09:22N 59°21' E 018°09'2 2.4
2014-Nov-17 08:22N 59°20' E 018°05'2 2.3
2014-Nov-17 07:19N 59°21' E 018°09'2 2.5
2014-Nov-17 06:33N 59°19' E 018°07'1 0.7
2014-Nov-17 04:30N 59°20' E 018°05'0 0.0
2014-Nov-17 03:08N 59°20' E 018°05'0 0.0
2014-Nov-17 02:32N 59°20' E 018°05'0 0.0
2014-Nov-17 01:32N 59°20' E 018°05'0 0.0
2014-Nov-17 00:05N 59°20' E 018°05'0 0.0
2014-Nov-16 23:29N 59°20' E 018°05'0 0.0
2014-Nov-16 22:29N 59°20' E 018°05'0 0.0
2014-Nov-16 21:26N 59°20' E 018°05'0 0.0
2014-Nov-16 20:32N 59°20' E 018°05'0 0.0
2014-Nov-16 18:14N 59°20' E 018°05'0 0.0
2014-Nov-16 17:20N 59°20' E 018°05'0 0.0
2014-Nov-16 16:20N 59°20' E 018°05'0 0.0
2014-Nov-16 15:29N 59°20' E 018°05'0 0.0
2014-Nov-16 14:29N 59°20' E 018°05'0 0.0
2014-Nov-16 13:29N 59°20' E 018°05'0 0.0
2014-Nov-16 12:05N 59°20' E 018°05'0 0.0
2014-Nov-16 11:29N 59°20' E 018°05'0 0.0
2014-Nov-16 10:30N 59°20' E 018°05'0 0.0
2014-Nov-16 09:29N 59°20' E 018°05'0 0.0
2014-Nov-16 08:29N 59°20' E 018°05'0 0.0
2014-Nov-16 07:23N 59°20' E 018°05'0 0.0
2014-Nov-16 06:32N 59°20' E 018°05'0 0.0
2014-Nov-16 04:17N 59°20' E 018°05'0 0.0
2014-Nov-16 02:18N 59°20' E 018°05'0 0.0
2014-Nov-16 01:27N 59°20' E 018°05'0 0.0
2014-Nov-16 00:27N 59°20' E 018°05'0 0.0
2014-Nov-15 22:21N 59°20' E 018°05'0 0.0
2014-Nov-15 21:27N 59°20' E 018°05'0 0.0
2014-Nov-15 20:27N 59°20' E 018°05'0 0.0
2014-Nov-15 19:33N 59°20' E 018°05'0 0.0
2014-Nov-15 18:18N 59°20' E 018°05'0 0.0
2014-Nov-15 17:27N 59°20' E 018°05'0 0.0
2014-Nov-15 16:27N 59°20' E 018°05'0 0.0
2014-Nov-15 15:24N 59°20' E 018°05'0 0.0
2014-Nov-15 14:24N 59°20' E 018°05'0 0.0
2014-Nov-15 13:33N 59°20' E 018°05'0 0.0
2014-Nov-15 12:24N 59°20' E 018°05'0 0.0
2014-Nov-15 11:33N 59°20' E 018°05'0 0.0
2014-Nov-15 10:27N 59°20' E 018°05'0 0.0
2014-Nov-15 09:27N 59°20' E 018°05'0 0.0
2014-Nov-15 04:15N 59°20' E 018°05'0 0.0
2014-Nov-15 03:27N 59°20' E 018°05'0 0.0
2014-Nov-15 02:24N 59°20' E 018°05'0 0.0
2014-Nov-15 00:24N 59°20' E 018°05'0 0.0
2014-Nov-14 23:27N 59°20' E 018°05'0 0.0
2014-Nov-14 22:27N 59°20' E 018°05'0 0.0
2014-Nov-14 21:12N 59°20' E 018°05'0 0.0
2014-Nov-14 20:24N 59°20' E 018°05'2 2.0
2014-Nov-14 19:25N 59°21' E 018°08'2 2.1
2014-Nov-14 18:33N 59°20' E 018°05'2 2.0
2014-Nov-14 17:32N 59°21' E 018°09'2 2.1
2014-Nov-14 16:31N 59°20' E 018°05'2 2.1
2014-Nov-14 15:34N 59°21' E 018°08'2 1.8
2014-Nov-14 14:24N 59°20' E 018°05'2 0.9
2014-Nov-14 12:28N 59°19' E 018°07'2 1.6
2014-Nov-14 11:20N 59°21' E 018°09'2 2.7
2014-Nov-14 10:32N 59°19' E 018°05'2 1.8
2014-Nov-14 09:31N 59°21' E 018°08'2 1.6
2014-Nov-14 08:22N 59°20' E 018°05'3 2.8
2014-Nov-14 07:28N 59°19' E 018°10'2 1.6
2014-Nov-14 06:30N 59°19' E 018°07'2 2.1
2014-Nov-14 05:30N 59°21' E 018°09'2 2.3
2014-Nov-14 04:28N 59°20' E 018°05'0 0.1
2014-Nov-14 03:23N 59°20' E 018°05'  

Dump ship's entire track history